createdAt,value
2023-07-26T00:02:18.818Z,0.25
2023-07-26T00:04:46.392Z,0.00
2023-07-26T00:07:13.989Z,1.00
2023-07-26T00:09:41.635Z,0.00
2023-07-26T00:12:09.232Z,2.00
2023-07-26T00:14:36.775Z,1.00
2023-07-26T00:17:04.400Z,1.00
2023-07-26T00:19:31.995Z,1.00
2023-07-26T00:22:01.496Z,1.00
2023-07-26T00:24:29.220Z,2.00
2023-07-26T00:26:56.843Z,1.00
2023-07-26T00:29:25.738Z,1.00
2023-07-26T00:31:53.793Z,3.00
2023-07-26T00:34:21.597Z,1.00
2023-07-26T00:36:49.186Z,0.00
2023-07-26T00:39:16.804Z,1.00
2023-07-26T00:41:44.411Z,0.50
2023-07-26T00:44:12.067Z,1.00
2023-07-26T00:46:39.909Z,1.00
2023-07-26T00:49:07.587Z,1.00
2023-07-26T00:51:35.509Z,1.00
2023-07-26T00:54:05.129Z,1.50
2023-07-26T00:56:33.089Z,1.00
2023-07-26T00:59:00.874Z,1.00
2023-07-26T01:01:28.560Z,0.75
2023-07-26T01:03:56.164Z,1.00
2023-07-26T01:06:23.712Z,1.00
2023-07-26T01:08:51.288Z,1.00
2023-07-26T01:11:18.878Z,1.00
2023-07-26T01:13:46.471Z,3.00
2023-07-26T01:16:14.540Z,1.00
2023-07-26T01:18:42.099Z,0.75
2023-07-26T01:21:09.692Z,3.00
2023-07-26T01:23:39.687Z,1.00
2023-07-26T01:26:07.464Z,1.50
2023-07-26T01:28:35.094Z,1.50
2023-07-26T01:31:02.860Z,1.00
2023-07-26T01:33:30.453Z,1.50
2023-07-26T01:35:58.020Z,4.00
2023-07-26T01:38:25.646Z,2.00
2023-07-26T01:40:53.286Z,1.50
2023-07-26T01:43:20.877Z,0.50
2023-07-26T01:45:48.515Z,1.00
2023-07-26T01:48:16.115Z,1.00
2023-07-26T01:50:43.676Z,0.50
2023-07-26T01:53:11.410Z,1.00
2023-07-26T01:55:39.017Z,1.00
2023-07-26T01:58:06.571Z,1.00
2023-07-26T02:00:35.205Z,1.00
2023-07-26T02:03:02.751Z,0.75
2023-07-26T02:05:30.358Z,1.50
2023-07-26T02:07:57.977Z,1.00
2023-07-26T02:10:25.514Z,0.00
2023-07-26T02:12:53.125Z,1.00
2023-07-26T02:15:21.409Z,1.00
2023-07-26T02:17:49.137Z,0.25
2023-07-26T02:20:16.753Z,0.00
2023-07-26T02:22:44.709Z,2.50
2023-07-26T02:25:12.462Z,2.00
2023-07-26T02:27:40.042Z,2.00
2023-07-26T02:30:07.648Z,3.00
2023-07-26T02:32:35.282Z,1.00
2023-07-26T02:35:02.857Z,1.00
2023-07-26T02:37:30.639Z,3.00
2023-07-26T02:39:58.164Z,1.00
2023-07-26T02:42:26.865Z,3.00
2023-07-26T02:44:54.848Z,2.50
2023-07-26T02:47:22.523Z,1.00
2023-07-26T02:49:50.459Z,1.00
2023-07-26T02:52:18.066Z,2.00
2023-07-26T02:54:45.639Z,3.00
2023-07-26T02:57:13.257Z,2.00
2023-07-26T02:59:40.867Z,3.00
2023-07-26T03:02:08.685Z,3.00
2023-07-26T03:04:36.830Z,3.00
2023-07-26T03:07:04.440Z,3.00
2023-07-26T03:09:32.027Z,1.50
2023-07-26T03:11:59.588Z,3.25
2023-07-26T03:14:27.211Z,0.50
2023-07-26T03:16:56.532Z,3.00
2023-07-26T03:19:27.810Z,3.00
2023-07-26T03:21:55.400Z,3.25
2023-07-26T03:24:23.004Z,3.75
2023-07-26T03:26:52.109Z,1.00
2023-07-26T03:29:19.672Z,3.00
2023-07-26T03:31:47.206Z,0.50
2023-07-26T03:34:14.894Z,2.00
2023-07-26T03:36:42.498Z,2.00
2023-07-26T03:39:10.317Z,3.25
2023-07-26T03:41:37.903Z,1.00
2023-07-26T03:44:05.470Z,5.00
2023-07-26T03:46:33.480Z,2.50
2023-07-26T03:49:01.668Z,3.75
2023-07-26T03:51:29.600Z,3.50
2023-07-26T03:53:57.161Z,3.00
2023-07-26T03:56:24.764Z,3.00
2023-07-26T03:58:52.334Z,3.00
2023-07-26T04:01:19.950Z,4.00
2023-07-26T04:03:47.655Z,2.00
2023-07-26T04:06:15.251Z,3.75
2023-07-26T04:08:42.873Z,5.00
2023-07-26T04:11:10.862Z,4.00
2023-07-26T04:13:38.412Z,3.50
2023-07-26T04:16:05.989Z,4.50
2023-07-26T04:18:33.602Z,4.50
2023-07-26T04:21:01.138Z,5.50
2023-07-26T04:23:28.657Z,6.00
2023-07-26T04:25:56.226Z,6.25
2023-07-26T04:28:23.900Z,3.50
2023-07-26T04:30:53.062Z,3.00
2023-07-26T04:33:22.638Z,4.00
2023-07-26T04:35:50.203Z,3.00
2023-07-26T04:38:17.797Z,1.00
2023-07-26T04:40:47.489Z,6.25
2023-07-26T04:43:15.098Z,3.00
2023-07-26T04:45:42.644Z,6.00
2023-07-26T04:48:10.281Z,4.00
2023-07-26T04:50:37.956Z,2.25
2023-07-26T04:53:05.586Z,4.00
2023-07-26T04:55:33.159Z,4.00
2023-07-26T04:58:00.680Z,4.00
2023-07-26T05:00:28.257Z,6.00
2023-07-26T05:02:55.900Z,2.50
2023-07-26T05:05:23.672Z,6.25
2023-07-26T05:07:51.213Z,6.00
2023-07-26T05:10:18.821Z,7.00
2023-07-26T05:12:46.454Z,6.25
2023-07-26T05:15:14.925Z,6.25
2023-07-26T05:17:42.636Z,6.75
2023-07-26T05:20:10.183Z,5.00
2023-07-26T05:22:37.813Z,4.00
2023-07-26T05:25:05.470Z,6.00
2023-07-26T05:27:33.085Z,5.50
2023-07-26T05:30:00.736Z,6.75
2023-07-26T05:32:28.397Z,6.00
2023-07-26T05:34:56.073Z,5.25
2023-07-26T05:37:25.377Z,6.75
2023-07-26T05:39:53.298Z,6.25
2023-07-26T05:42:20.889Z,5.50
2023-07-26T05:44:48.477Z,8.00
2023-07-26T05:47:16.127Z,6.50
2023-07-26T05:49:43.915Z,5.50
2023-07-26T05:52:11.525Z,7.50
2023-07-26T05:54:39.255Z,4.50
2023-07-26T05:57:07.329Z,6.25
2023-07-26T05:59:34.912Z,10.00
2023-07-26T06:02:02.672Z,6.00
2023-07-26T06:04:30.325Z,9.00
2023-07-26T06:06:58.067Z,6.25
2023-07-26T06:09:27.181Z,6.75
2023-07-26T06:11:57.260Z,7.50
2023-07-26T06:14:26.465Z,6.00
2023-07-26T06:16:54.492Z,6.75
2023-07-26T06:19:23.670Z,7.00
2023-07-26T06:21:51.263Z,7.50
2023-07-26T06:24:19.214Z,6.00
2023-07-26T06:26:46.877Z,4.00
2023-07-26T06:29:15.180Z,8.50
2023-07-26T06:31:43.630Z,3.75
2023-07-26T06:34:11.559Z,4.00
2023-07-26T06:36:39.505Z,6.50
2023-07-26T06:39:07.217Z,5.00
2023-07-26T06:41:35.335Z,6.00
2023-07-26T06:44:03.209Z,3.50
2023-07-26T06:46:30.926Z,6.75
2023-07-26T06:48:58.716Z,4.00
2023-07-26T06:51:26.445Z,1.00
2023-07-26T06:53:54.218Z,3.50
2023-07-26T06:56:24.109Z,3.25
2023-07-26T06:58:52.096Z,3.00
2023-07-26T07:01:19.845Z,3.00
2023-07-26T07:03:50.535Z,3.00
2023-07-26T07:06:23.957Z,4.00
2023-07-26T07:08:51.564Z,4.00
2023-07-26T07:11:19.214Z,4.00
2023-07-26T07:13:46.933Z,1.00
2023-07-26T07:16:15.012Z,5.00
2023-07-26T07:18:43.371Z,6.25
2023-07-26T07:21:11.102Z,3.25
2023-07-26T07:23:38.800Z,3.00
2023-07-26T07:26:06.905Z,5.50
2023-07-26T07:28:34.653Z,4.00
2023-07-26T07:31:02.879Z,3.50
2023-07-26T07:33:31.315Z,4.40
2023-07-26T07:35:59.147Z,3.80
2023-07-26T07:38:26.771Z,8.80
2023-07-26T07:40:54.521Z,7.00
2023-07-26T07:43:22.664Z,8.20
2023-07-26T07:45:50.680Z,7.00
2023-07-26T07:48:18.924Z,6.20
2023-07-26T07:50:47.085Z,6.00
2023-07-26T07:53:14.866Z,8.20
2023-07-26T07:55:42.952Z,3.60
2023-07-26T07:58:10.953Z,4.40
2023-07-26T08:00:38.644Z,4.80
2023-07-26T08:03:06.498Z,7.40
2023-07-26T08:05:34.342Z,6.20
2023-07-26T08:08:02.189Z,8.20
2023-07-26T08:10:30.026Z,9.00
2023-07-26T08:12:57.866Z,9.00
2023-07-26T08:15:25.627Z,9.80
2023-07-26T08:17:53.614Z,10.00
2023-07-26T08:20:21.994Z,8.80
2023-07-26T08:22:49.740Z,7.80
2023-07-26T08:25:18.019Z,9.00
2023-07-26T08:27:45.876Z,12.40
2023-07-26T08:30:13.866Z,9.60
2023-07-26T08:32:43.258Z,9.20
2023-07-26T08:35:11.217Z,12.00
2023-07-26T08:37:39.006Z,9.20
2023-07-26T08:40:08.093Z,7.80
2023-07-26T08:42:35.926Z,9.00
2023-07-26T08:45:04.759Z,7.00
2023-07-26T08:47:32.548Z,10.00
2023-07-26T08:50:00.558Z,6.60
2023-07-26T08:52:28.334Z,6.40
2023-07-26T08:54:56.774Z,7.80
2023-07-26T08:57:25.111Z,8.20
2023-07-26T08:59:52.819Z,6.40
2023-07-26T09:02:20.722Z,5.20
2023-07-26T09:04:48.654Z,7.20
2023-07-26T09:07:16.537Z,9.80
2023-07-26T09:09:44.840Z,10.00
2023-07-26T09:12:12.915Z,7.80
2023-07-26T09:14:40.744Z,9.00
2023-07-26T09:17:08.985Z,8.00
2023-07-26T09:19:36.831Z,7.00
2023-07-26T09:22:04.604Z,9.60
2023-07-26T09:24:34.880Z,11.60
2023-07-26T09:27:02.947Z,10.00
2023-07-26T09:29:30.634Z,11.00
2023-07-26T09:31:58.496Z,10.00
2023-07-26T09:34:26.613Z,7.00
2023-07-26T09:36:56.159Z,9.60
2023-07-26T09:39:24.054Z,8.60
2023-07-26T09:41:54.927Z,12.60
2023-07-26T09:44:23.267Z,11.60
2023-07-26T09:46:51.556Z,10.40
2023-07-26T09:54:32.928Z,13.80
2023-07-26T09:57:01.424Z,7.20
2023-07-26T09:59:29.637Z,8.00
2023-07-26T10:01:57.450Z,13.00
2023-07-26T10:04:25.404Z,10.80
2023-07-26T10:06:53.438Z,10.80
2023-07-26T10:09:21.557Z,9.00
2023-07-26T10:11:49.511Z,10.20
2023-07-26T10:14:17.521Z,11.20
2023-07-26T10:16:45.408Z,11.00
2023-07-26T10:19:13.624Z,12.20
2023-07-26T10:21:43.222Z,9.20
2023-07-26T10:24:11.160Z,5.20
2023-07-26T10:26:39.189Z,4.00
2023-07-26T10:29:07.145Z,4.00
2023-07-26T10:31:35.104Z,2.60
2023-07-26T10:34:03.857Z,4.40
2023-07-26T10:36:32.189Z,3.00
2023-07-26T10:39:00.336Z,4.00
2023-07-26T10:41:28.112Z,2.00
2023-07-26T10:43:58.920Z,2.60
2023-07-26T10:46:28.442Z,2.50
2023-07-26T10:48:56.341Z,0.50
2023-07-26T10:51:24.316Z,2.50
2023-07-26T10:53:53.578Z,2.50
2023-07-26T10:56:21.451Z,1.00
2023-07-26T10:58:49.839Z,1.00
2023-07-26T11:01:17.710Z,2.00
2023-07-26T11:03:45.571Z,1.50
2023-07-26T11:06:13.546Z,3.00
2023-07-26T11:08:41.496Z,1.00
2023-07-26T11:11:09.345Z,1.00
2023-07-26T11:13:37.365Z,1.00
2023-07-26T11:16:15.317Z,1.00
2023-07-26T11:18:47.811Z,1.00
2023-07-26T11:21:16.101Z,3.00
2023-07-26T11:23:43.918Z,1.00
2023-07-26T11:26:12.634Z,3.00
2023-07-26T11:28:40.560Z,3.20
2023-07-26T11:31:08.701Z,3.60
2023-07-26T11:33:36.945Z,1.80
2023-07-26T11:36:05.278Z,1.00
2023-07-26T11:38:33.137Z,2.20
2023-07-26T11:41:01.080Z,2.00
2023-07-26T11:43:29.574Z,4.00
2023-07-26T11:45:58.093Z,2.00
2023-07-26T11:48:27.586Z,2.00
2023-07-26T11:50:55.474Z,2.00
2023-07-26T11:53:31.903Z,1.80
2023-07-26T11:56:09.190Z,2.00
2023-07-26T11:58:37.009Z,2.60
2023-07-26T12:01:05.246Z,2.20
2023-07-26T12:03:33.766Z,2.20
2023-07-26T12:06:06.550Z,4.60
2023-07-26T12:08:36.813Z,2.00
2023-07-26T12:11:07.704Z,1.00
2023-07-26T12:13:36.008Z,3.40
2023-07-26T12:16:04.297Z,5.20
2023-07-26T12:18:32.576Z,6.00
2023-07-26T12:21:03.652Z,3.00
2023-07-26T12:23:33.696Z,5.60
2023-07-26T12:26:01.583Z,5.60
2023-07-26T12:28:29.551Z,3.60
2023-07-26T12:30:58.032Z,3.80
2023-07-26T12:33:25.916Z,5.80
2023-07-26T12:35:53.858Z,4.20
2023-07-26T12:38:23.252Z,4.80
2023-07-26T12:40:51.055Z,7.00
2023-07-26T12:43:18.853Z,7.00
2023-07-26T12:45:46.914Z,5.00
2023-07-26T12:48:14.717Z,7.00
2023-07-26T12:50:43.039Z,10.00
2023-07-26T12:53:11.608Z,7.40
2023-07-26T12:55:39.804Z,6.00
2023-07-26T12:58:07.611Z,9.00
2023-07-26T13:00:35.621Z,4.40
2023-07-26T13:03:03.711Z,7.00
2023-07-26T13:05:31.813Z,10.40
2023-07-26T13:07:59.778Z,7.00
2023-07-26T13:10:28.008Z,6.20
2023-07-26T13:12:56.083Z,8.00
2023-07-26T13:15:23.921Z,7.80
2023-07-26T13:17:52.114Z,7.00
2023-07-26T13:20:19.967Z,8.00
2023-07-26T13:22:48.033Z,6.60
2023-07-26T13:25:15.976Z,10.20
2023-07-26T13:27:44.180Z,9.20
2023-07-26T13:30:12.317Z,7.00
2023-07-26T13:32:40.254Z,7.40
2023-07-26T13:35:09.745Z,11.80
2023-07-26T13:37:38.476Z,8.40
2023-07-26T13:40:07.391Z,8.60
2023-07-26T13:42:35.473Z,6.00
2023-07-26T13:45:03.380Z,7.40
2023-07-26T13:47:33.332Z,8.60
2023-07-26T13:50:01.364Z,6.00
2023-07-26T13:52:29.412Z,4.40
2023-07-26T13:54:57.265Z,6.80
2023-07-26T13:57:25.253Z,6.00
2023-07-26T13:59:53.345Z,6.20
2023-07-26T14:02:21.131Z,5.20
2023-07-26T14:04:49.167Z,6.00
2023-07-26T14:07:18.629Z,5.00
2023-07-26T14:09:47.530Z,6.50
2023-07-26T14:12:17.226Z,6.50
2023-07-26T14:14:45.270Z,6.00
2023-07-26T14:17:13.721Z,5.60
2023-07-26T14:19:41.696Z,4.40
2023-07-26T14:22:09.849Z,9.00
2023-07-26T14:24:38.025Z,7.00
2023-07-26T14:27:07.743Z,6.60
2023-07-26T14:29:35.821Z,10.00
2023-07-26T14:32:03.662Z,7.00
2023-07-26T14:34:32.668Z,6.20
2023-07-26T14:37:00.609Z,8.00
2023-07-26T14:39:28.536Z,7.80
2023-07-26T14:41:58.120Z,7.80
2023-07-26T14:44:26.099Z,8.40
2023-07-26T14:46:53.972Z,9.00
2023-07-26T14:49:24.545Z,9.00
2023-07-26T14:51:52.446Z,10.60
2023-07-26T14:54:20.266Z,13.20
2023-07-26T14:57:00.461Z,10.60
2023-07-26T14:59:37.662Z,8.40
2023-07-26T15:02:05.549Z,9.80
2023-07-26T15:04:33.542Z,10.40
2023-07-26T15:07:01.685Z,11.40
2023-07-26T15:09:29.559Z,9.40
2023-07-26T15:11:58.699Z,9.60
2023-07-26T15:14:26.824Z,10.40
2023-07-26T15:16:54.854Z,10.20
2023-07-26T15:19:23.324Z,12.00
2023-07-26T15:21:51.584Z,12.40
2023-07-26T15:24:19.625Z,2.40
2023-07-26T15:26:47.514Z,12.40
2023-07-26T15:29:15.812Z,10.40
2023-07-26T15:31:43.702Z,13.20
2023-07-26T15:34:11.675Z,12.00
2023-07-26T15:36:39.768Z,13.80
2023-07-26T15:39:09.759Z,13.00
2023-07-26T15:42:06.683Z,16.60
2023-07-26T15:49:28.126Z,11.40
2023-07-26T15:51:56.115Z,17.00
2023-07-26T15:54:23.960Z,10.40
2023-07-26T15:56:51.825Z,12.20
2023-07-26T15:59:19.914Z,15.20
2023-07-26T16:01:47.763Z,13.60
2023-07-26T16:21:57.619Z,9.20
2023-07-26T16:24:26.060Z,7.20
2023-07-26T16:26:54.095Z,10.80
2023-07-26T16:29:21.870Z,8.60
2023-07-26T16:31:49.835Z,7.60
2023-07-26T16:34:18.606Z,11.80
2023-07-26T16:36:46.473Z,9.80
2023-07-26T16:39:14.719Z,9.20
2023-07-26T16:41:42.691Z,9.40
2023-07-26T16:44:10.604Z,10.40
2023-07-26T16:46:58.025Z,9.60
2023-07-26T16:49:28.017Z,6.00
2023-07-26T16:51:55.965Z,6.00
2023-07-26T16:54:24.204Z,8.00
2023-07-26T16:56:52.148Z,8.20
2023-07-26T16:59:20.092Z,11.20
2023-07-26T17:01:47.923Z,9.60
2023-07-26T17:04:15.730Z,8.20
2023-07-26T17:06:44.118Z,7.80
2023-07-26T17:09:12.280Z,4.60
2023-07-26T17:11:40.283Z,9.20
2023-07-26T17:14:08.120Z,5.00
2023-07-26T17:16:36.361Z,8.80
2023-07-26T17:19:04.910Z,7.00
2023-07-26T17:21:32.744Z,5.00
2023-07-26T17:24:00.594Z,7.00
2023-07-26T17:26:31.970Z,8.00
2023-07-26T17:29:00.497Z,8.00
2023-07-26T17:31:29.113Z,5.00
2023-07-26T17:33:57.413Z,4.60
2023-07-26T17:36:25.303Z,7.00
2023-07-26T17:38:53.238Z,5.00
2023-07-26T17:41:21.380Z,8.00
2023-07-26T17:43:50.350Z,4.60
2023-07-26T17:46:18.323Z,6.20
2023-07-26T17:48:46.469Z,4.20
2023-07-26T17:51:14.901Z,5.00
2023-07-26T17:53:42.763Z,1.80
2023-07-26T17:56:14.164Z,5.80
2023-07-26T17:58:42.066Z,4.80
2023-07-26T18:01:09.954Z,7.60
2023-07-26T18:03:40.089Z,4.00
2023-07-26T18:06:09.026Z,4.40
2023-07-26T18:08:38.415Z,6.20
2023-07-26T18:11:06.911Z,7.80
2023-07-26T18:13:36.781Z,4.00
2023-07-26T18:16:04.725Z,4.00
2023-07-26T18:18:33.044Z,2.00
2023-07-26T18:21:00.936Z,4.00
2023-07-26T18:23:28.796Z,1.00
2023-07-26T18:25:56.698Z,6.60
2023-07-26T18:28:24.472Z,3.20
2023-07-26T18:30:52.510Z,3.20
2023-07-26T18:33:20.722Z,4.00
2023-07-26T18:35:48.684Z,2.80
2023-07-26T18:38:16.616Z,4.00
2023-07-26T18:40:44.620Z,3.60
2023-07-26T18:43:13.656Z,2.80
2023-07-26T18:45:43.265Z,6.00
2023-07-26T18:48:11.865Z,4.00
2023-07-26T18:50:39.785Z,7.40
2023-07-26T18:53:07.874Z,3.00
2023-07-26T18:55:36.499Z,3.80
2023-07-26T18:58:04.896Z,3.80
2023-07-26T19:00:32.724Z,3.40
2023-07-26T19:03:01.324Z,3.60
2023-07-26T19:05:29.325Z,3.00
2023-07-26T19:07:57.929Z,4.00
2023-07-26T19:10:28.714Z,4.00
2023-07-26T19:12:56.965Z,3.60
2023-07-26T19:15:24.859Z,4.00
2023-07-26T19:17:53.475Z,3.00
2023-07-26T19:20:21.370Z,3.80
2023-07-26T19:22:49.275Z,5.20
2023-07-26T19:25:17.196Z,5.80
2023-07-26T19:27:45.060Z,4.00
2023-07-26T19:30:13.134Z,3.00
2023-07-26T19:32:41.172Z,6.40
2023-07-26T19:35:10.480Z,4.40
2023-07-26T19:37:39.655Z,3.60
2023-07-26T19:40:07.529Z,5.20
2023-07-26T19:42:35.346Z,3.60
2023-07-26T19:45:04.101Z,6.00
2023-07-26T19:47:32.178Z,7.00
2023-07-26T19:50:00.206Z,6.00
2023-07-26T19:52:28.335Z,7.00
2023-07-26T19:54:56.259Z,5.20
2023-07-26T19:57:26.256Z,6.00
2023-07-26T19:59:54.307Z,5.00
2023-07-26T20:02:22.730Z,9.25
2023-07-26T20:04:50.671Z,8.00
2023-07-26T20:07:18.420Z,6.50
2023-07-26T20:09:46.218Z,6.25
2023-07-26T20:12:14.023Z,6.50
2023-07-26T20:14:41.883Z,3.50
2023-07-26T20:17:09.844Z,4.00
2023-07-26T20:19:37.608Z,7.00
2023-07-26T20:22:05.477Z,4.00
2023-07-26T20:24:34.976Z,6.25
2023-07-26T20:27:02.910Z,7.00
2023-07-26T20:29:30.700Z,8.50
2023-07-26T20:31:58.629Z,9.25
2023-07-26T20:34:26.464Z,5.00
2023-07-26T20:36:54.338Z,6.50
2023-07-26T20:39:22.228Z,10.00
2023-07-26T20:41:50.066Z,11.50
2023-07-26T20:44:17.922Z,8.00
2023-07-26T20:46:46.806Z,6.25
2023-07-26T20:49:15.709Z,3.00
2023-07-26T20:51:43.445Z,9.50
2023-07-26T20:54:11.356Z,7.00
2023-07-26T20:56:39.230Z,10.75
2023-07-26T20:59:07.021Z,10.50
2023-07-26T21:01:35.523Z,7.50
2023-07-26T21:04:03.614Z,6.00
2023-07-26T21:06:31.375Z,10.00
2023-07-26T21:08:59.424Z,6.00
2023-07-26T21:11:27.234Z,6.50
2023-07-26T21:13:55.047Z,6.00
2023-07-26T21:16:22.953Z,9.00
2023-07-26T21:18:50.685Z,6.50
2023-07-26T21:21:18.757Z,7.50
2023-07-26T21:23:46.677Z,7.00
2023-07-26T21:26:14.609Z,7.50
2023-07-26T21:28:42.419Z,7.00
2023-07-26T21:31:11.583Z,7.00
2023-07-26T21:33:39.361Z,7.00
2023-07-26T21:36:07.134Z,7.00
2023-07-26T21:38:35.049Z,6.00
2023-07-26T21:41:03.756Z,7.00
2023-07-26T21:43:31.549Z,4.50
2023-07-26T21:45:59.368Z,6.50
2023-07-26T21:48:27.197Z,6.00
2023-07-26T21:50:55.205Z,5.00
2023-07-26T21:53:23.367Z,4.50
2023-07-26T21:55:51.140Z,4.00
2023-07-26T21:58:18.937Z,6.00
2023-07-26T22:00:47.288Z,6.00
2023-07-26T22:03:15.653Z,6.50
2023-07-26T22:05:43.370Z,6.00
2023-07-26T22:08:11.167Z,6.50
2023-07-26T22:10:39.025Z,9.00
2023-07-26T22:13:06.778Z,8.00
2023-07-26T22:15:36.347Z,9.00
2023-07-26T22:18:04.669Z,7.50
2023-07-26T22:20:32.423Z,5.00
2023-07-26T22:23:00.180Z,6.00
2023-07-26T22:25:27.894Z,8.50
2023-07-26T22:27:55.590Z,7.50
2023-07-26T22:30:23.290Z,5.50
2023-07-26T22:32:51.065Z,7.00
2023-07-26T22:35:18.843Z,7.50
2023-07-26T22:37:46.464Z,7.25
2023-07-26T22:40:14.278Z,7.00
2023-07-26T22:42:41.935Z,6.00
2023-07-26T22:45:10.558Z,5.00
2023-07-26T22:47:38.201Z,9.50
2023-07-26T22:50:06.228Z,9.25
2023-07-26T22:52:33.831Z,4.50
2023-07-26T22:55:01.450Z,4.50
2023-07-26T22:57:29.509Z,4.00
2023-07-26T22:59:57.154Z,4.00
2023-07-26T23:02:25.106Z,5.50
2023-07-26T23:04:52.746Z,8.50
2023-07-26T23:07:20.400Z,9.00
2023-07-26T23:09:47.997Z,7.00
2023-07-26T23:12:15.553Z,6.50
2023-07-26T23:14:43.179Z,6.50
2023-07-26T23:17:10.780Z,6.25
2023-07-26T23:19:38.769Z,3.75
2023-07-26T23:22:07.275Z,6.75
2023-07-26T23:24:34.907Z,7.00
2023-07-26T23:27:02.616Z,6.00
2023-07-26T23:29:30.180Z,8.25
2023-07-26T23:31:57.911Z,6.00
2023-07-26T23:34:25.562Z,6.75
2023-07-26T23:36:53.231Z,7.00
2023-07-26T23:39:20.863Z,9.00
2023-07-26T23:41:49.708Z,6.00
2023-07-26T23:44:17.380Z,6.50
2023-07-26T23:46:45.022Z,7.50
2023-07-26T23:49:12.741Z,6.50
2023-07-26T23:51:40.357Z,6.50
2023-07-26T23:54:07.950Z,6.00
2023-07-26T23:56:37.128Z,5.00
2023-07-26T23:59:04.868Z,6.25
